KSGR

Sugar Land Regional Airport

Houston, Texas, USA
METAR KSGR 120953Z AUTO 15008KT 10SM OVC047 15/11 A3011 RMK AO2 SLP196 T01500106
Observed Flight Rules
Dec-12 @ 09:53 UTC (38 minutes ago) Visual Flight Rules
Wind Visibility Clouds
150° at 8 knots 10 miles
  • Overcast at 4,700' AGL
Temperatures Readings
Current 15°C / 59°F
Dewpoint 11°C / 52°F
Humidity 77%
Altimeter 30.11" Hg
Pressure 1019.6 hPa
Elevation 2
METAR KSGR 120953Z AUTO 15008KT 10SM OVC047 15/11 A3011 RMK AO2 SLP196 T01500106
Observed Flight Rules
Dec-12 @ 09:53 UTC
(38 minutes ago)
VFR
Wind Visibility
150° at 8 knots 10 miles
Clouds
  • Overcast at 4,700' AGL
Temperature Dewpoint
15°C / 59°F 11°C / 52°F
Humidity Altimeter Pressure
77% 30.11" Hg 1019.6 hPa